sensor_id;sensor_type;location;lat;lon;timestamp;pressure;altitude;pressure_sealevel;temperature;humidity
82160;BME280;71734;50.876;7.372;2023-07-24T00:01:31;98164.63;;;17.74;82.65
82160;BME280;71734;50.876;7.372;2023-07-24T00:03:59;98172.66;;;17.74;82.77
82160;BME280;71734;50.876;7.372;2023-07-24T00:06:25;98161.47;;;17.69;82.91
82160;BME280;71734;50.876;7.372;2023-07-24T00:08:51;98158.66;;;17.70;82.54
82160;BME280;71734;50.876;7.372;2023-07-24T00:11:18;98161.22;;;17.72;82.94
82160;BME280;71734;50.876;7.372;2023-07-24T00:13:44;98159.25;;;17.74;83.19
82160;BME280;71734;50.876;7.372;2023-07-24T00:16:11;98160.25;;;17.73;83.58
82160;BME280;71734;50.876;7.372;2023-07-24T00:18:37;98165.97;;;17.68;82.95
82160;BME280;71734;50.876;7.372;2023-07-24T00:21:05;98163.66;;;17.63;82.93
82160;BME280;71734;50.876;7.372;2023-07-24T00:23:31;98161.69;;;17.65;82.39
82160;BME280;71734;50.876;7.372;2023-07-24T00:25:58;98164.97;;;17.69;82.40
82160;BME280;71734;50.876;7.372;2023-07-24T00:28:24;98162.31;;;17.69;82.79
82160;BME280;71734;50.876;7.372;2023-07-24T00:30:51;98160.38;;;17.71;82.53
82160;BME280;71734;50.876;7.372;2023-07-24T00:33:17;98157.88;;;17.57;83.96
82160;BME280;71734;50.876;7.372;2023-07-24T00:35:43;98152.41;;;17.47;83.91
82160;BME280;71734;50.876;7.372;2023-07-24T00:38:11;98145.59;;;17.43;84.19
82160;BME280;71734;50.876;7.372;2023-07-24T00:40:38;98150.09;;;17.43;84.72
82160;BME280;71734;50.876;7.372;2023-07-24T00:43:04;98144.41;;;17.58;82.99
82160;BME280;71734;50.876;7.372;2023-07-24T00:45:31;98148.06;;;17.57;83.13
82160;BME280;71734;50.876;7.372;2023-07-24T00:47:58;98139.50;;;17.41;83.54
82160;BME280;71734;50.876;7.372;2023-07-24T00:50:26;98142.16;;;17.41;84.19
82160;BME280;71734;50.876;7.372;2023-07-24T00:52:53;98139.88;;;17.48;82.81
82160;BME280;71734;50.876;7.372;2023-07-24T00:55:22;98140.22;;;17.54;82.67
82160;BME280;71734;50.876;7.372;2023-07-24T00:57:49;98146.13;;;17.59;82.51
82160;BME280;71734;50.876;7.372;2023-07-24T01:00:15;98146.13;;;17.59;82.93
82160;BME280;71734;50.876;7.372;2023-07-24T01:02:43;98140.22;;;17.54;83.06
82160;BME280;71734;50.876;7.372;2023-07-24T01:05:11;98135.72;;;17.55;82.67
82160;BME280;71734;50.876;7.372;2023-07-24T01:07:38;98143.53;;;17.36;83.93
82160;BME280;71734;50.876;7.372;2023-07-24T01:10:05;98136.69;;;17.43;83.01
82160;BME280;71734;50.876;7.372;2023-07-24T01:12:36;98127.81;;;17.31;84.09
82160;BME280;71734;50.876;7.372;2023-07-24T01:15:09;98130.34;;;17.22;84.48
82160;BME280;71734;50.876;7.372;2023-07-24T01:17:42;98126.31;;;17.16;84.91
82160;BME280;71734;50.876;7.372;2023-07-24T01:20:11;98110.75;;;17.10;84.74
82160;BME280;71734;50.876;7.372;2023-07-24T01:22:48;98104.28;;;17.12;84.27
82160;BME280;71734;50.876;7.372;2023-07-24T01:25:27;98102.19;;;17.05;84.97
82160;BME280;71734;50.876;7.372;2023-07-24T01:27:55;98093.19;;;16.95;85.18
82160;BME280;71734;50.876;7.372;2023-07-24T01:30:22;98100.03;;;17.10;84.36
82160;BME280;71734;50.876;7.372;2023-07-24T01:32:49;98092.84;;;16.99;85.28
82160;BME280;71734;50.876;7.372;2023-07-24T01:35:19;98090.19;;;17.10;84.16
82160;BME280;71734;50.876;7.372;2023-07-24T01:37:46;98088.00;;;17.15;84.31
82160;BME280;71734;50.876;7.372;2023-07-24T01:40:13;98078.25;;;17.14;84.30
82160;BME280;71734;50.876;7.372;2023-07-24T01:42:40;98070.84;;;17.18;84.51
82160;BME280;71734;50.876;7.372;2023-07-24T01:45:09;98077.28;;;17.27;83.55
82160;BME280;71734;50.876;7.372;2023-07-24T01:47:36;98073.75;;;17.37;81.86
82160;BME280;71734;50.876;7.372;2023-07-24T01:50:03;98082.50;;;17.28;82.92
82160;BME280;71734;50.876;7.372;2023-07-24T01:52:35;98062.06;;;17.27;83.10
82160;BME280;71734;50.876;7.372;2023-07-24T01:55:02;98066.56;;;17.38;81.74
82160;BME280;71734;50.876;7.372;2023-07-24T01:57:29;98058.41;;;17.28;81.98
82160;BME280;71734;50.876;7.372;2023-07-24T01:59:59;98058.41;;;17.28;82.03
82160;BME280;71734;50.876;7.372;2023-07-24T02:02:39;98046.00;;;17.16;83.51
82160;BME280;71734;50.876;7.372;2023-07-24T02:07:43;98066.53;;;17.04;84.30
82160;BME280;71734;50.876;7.372;2023-07-24T02:10:09;98059.13;;;17.08;84.65
82160;BME280;71734;50.876;7.372;2023-07-24T02:12:36;98059.00;;;16.98;84.61
82160;BME280;71734;50.876;7.372;2023-07-24T02:15:08;98059.72;;;16.89;84.99
82160;BME280;71734;50.876;7.372;2023-07-24T02:17:36;98065.94;;;16.90;85.44
82160;BME280;71734;50.876;7.372;2023-07-24T02:20:04;98064.94;;;16.80;85.98
82160;BME280;71734;50.876;7.372;2023-07-24T02:22:31;98057.38;;;16.73;86.34
82160;BME280;71734;50.876;7.372;2023-07-24T02:24:57;98057.16;;;16.88;85.02
82160;BME280;71734;50.876;7.372;2023-07-24T02:27:25;98051.69;;;16.89;83.90
82160;BME280;71734;50.876;7.372;2023-07-24T02:29:52;98049.38;;;16.96;85.35
82160;BME280;71734;50.876;7.372;2023-07-24T02:32:19;98060.69;;;16.88;84.81
82160;BME280;71734;50.876;7.372;2023-07-24T02:34:49;98048.00;;;16.79;84.79
82160;BME280;71734;50.876;7.372;2023-07-24T02:37:16;98050.47;;;16.82;85.19
82160;BME280;71734;50.876;7.372;2023-07-24T02:39:43;98057.66;;;16.82;84.90
82160;BME280;71734;50.876;7.372;2023-07-24T02:46:20;98053.16;;;16.82;84.82
82160;BME280;71734;50.876;7.372;2023-07-24T02:49:07;98045.50;;;16.89;84.62
82160;BME280;71734;50.876;7.372;2023-07-24T02:51:43;98038.41;;;16.77;85.44
82160;BME280;71734;50.876;7.372;2023-07-24T02:54:17;98024.53;;;16.71;84.84
82160;BME280;71734;50.876;7.372;2023-07-24T03:02:04;98018.72;;;16.78;84.50
82160;BME280;71734;50.876;7.372;2023-07-24T03:04:31;98015.09;;;16.79;84.97
82160;BME280;71734;50.876;7.372;2023-07-24T03:06:58;97996.47;;;16.77;84.17
82160;BME280;71734;50.876;7.372;2023-07-24T03:09:24;97991.09;;;16.77;84.48
82160;BME280;71734;50.876;7.372;2023-07-24T03:11:51;97990.50;;;16.73;85.28
82160;BME280;71734;50.876;7.372;2023-07-24T03:14:17;97995.59;;;16.77;84.88
82160;BME280;71734;50.876;7.372;2023-07-24T03:16:44;97993.16;;;16.62;85.67
82160;BME280;71734;50.876;7.372;2023-07-24T03:19:12;97980.50;;;16.64;84.41
82160;BME280;71734;50.876;7.372;2023-07-24T03:21:38;97971.78;;;16.73;84.50
82160;BME280;71734;50.876;7.372;2023-07-24T03:24:05;97974.44;;;16.73;84.24
82160;BME280;71734;50.876;7.372;2023-07-24T03:26:31;97969.56;;;16.67;84.11
82160;BME280;71734;50.876;7.372;2023-07-24T03:28:58;97981.97;;;16.68;84.75
82160;BME280;71734;50.876;7.372;2023-07-24T03:31:25;97975.91;;;16.78;83.94
82160;BME280;71734;50.876;7.372;2023-07-24T03:33:51;97954.00;;;16.61;84.61
82160;BME280;71734;50.876;7.372;2023-07-24T03:36:19;97980.06;;;16.70;84.13
82160;BME280;71734;50.876;7.372;2023-07-24T03:38:46;97956.16;;;16.56;84.54
82160;BME280;71734;50.876;7.372;2023-07-24T03:41:12;97942.88;;;16.55;84.04
82160;BME280;71734;50.876;7.372;2023-07-24T03:43:39;97943.31;;;16.61;83.97
82160;BME280;71734;50.876;7.372;2023-07-24T03:46:05;97937.34;;;16.58;83.89
82160;BME280;71734;50.876;7.372;2023-07-24T03:48:32;97933.28;;;16.52;84.03
82160;BME280;71734;50.876;7.372;2023-07-24T03:51:00;97935.25;;;16.50;84.05
82160;BME280;71734;50.876;7.372;2023-07-24T03:53:28;97933.53;;;16.49;83.89
82160;BME280;71734;50.876;7.372;2023-07-24T03:55:55;97945.44;;;16.45;84.33
82160;BME280;71734;50.876;7.372;2023-07-24T03:58:22;97953.72;;;16.42;84.58
82160;BME280;71734;50.876;7.372;2023-07-24T04:00:50;97955.88;;;16.37;84.61
82160;BME280;71734;50.876;7.372;2023-07-24T04:03:17;97953.47;;;16.45;84.73
82160;BME280;71734;50.876;7.372;2023-07-24T04:05:46;97959.72;;;16.57;84.19
82160;BME280;71734;50.876;7.372;2023-07-24T04:08:14;97945.44;;;16.56;84.04
82160;BME280;71734;50.876;7.372;2023-07-24T04:10:42;97938.69;;;16.63;84.21
82160;BME280;71734;50.876;7.372;2023-07-24T04:13:12;97929.69;;;16.64;83.38
82160;BME280;71734;50.876;7.372;2023-07-24T04:15:38;97931.50;;;16.64;83.01
82160;BME280;71734;50.876;7.372;2023-07-24T04:18:05;97934.06;;;16.65;83.11
82160;BME280;71734;50.876;7.372;2023-07-24T04:20:32;97935.78;;;16.66;83.33
82160;BME280;71734;50.876;7.372;2023-07-24T04:22:58;97936.84;;;16.64;84.00
82160;BME280;71734;50.876;7.372;2023-07-24T04:25:25;97931.16;;;16.68;82.81
82160;BME280;71734;50.876;7.372;2023-07-24T04:27:53;97947.69;;;16.73;82.87
82160;BME280;71734;50.876;7.372;2023-07-24T04:30:20;97949.41;;;16.75;83.76
82160;BME280;71734;50.876;7.372;2023-07-24T04:32:47;97945.38;;;16.69;83.52
82160;BME280;71734;50.876;7.372;2023-07-24T04:35:13;97954.50;;;16.78;82.28
82160;BME280;71734;50.876;7.372;2023-07-24T04:37:40;97953.75;;;16.64;83.75
82160;BME280;71734;50.876;7.372;2023-07-24T04:40:07;97965.47;;;16.75;83.51
82160;BME280;71734;50.876;7.372;2023-07-24T04:42:34;97946.72;;;16.75;83.45
82160;BME280;71734;50.876;7.372;2023-07-24T04:45:02;97961.78;;;16.76;83.37
82160;BME280;71734;50.876;7.372;2023-07-24T04:47:29;97960.56;;;16.80;83.47
82160;BME280;71734;50.876;7.372;2023-07-24T04:49:56;97963.50;;;16.77;84.06
82160;BME280;71734;50.876;7.372;2023-07-24T04:52:22;97966.91;;;16.79;83.86
82160;BME280;71734;50.876;7.372;2023-07-24T04:54:49;97961.56;;;16.79;83.42
82160;BME280;71734;50.876;7.372;2023-07-24T04:57:15;97971.53;;;16.88;81.45
82160;BME280;71734;50.876;7.372;2023-07-24T04:59:42;97969.69;;;16.88;82.14
82160;BME280;71734;50.876;7.372;2023-07-24T05:02:10;97968.47;;;16.92;81.67
82160;BME280;71734;50.876;7.372;2023-07-24T05:04:37;97965.22;;;16.89;82.31
82160;BME280;71734;50.876;7.372;2023-07-24T05:07:03;97968.13;;;16.86;82.63
82160;BME280;71734;50.876;7.372;2023-07-24T05:09:30;97967.88;;;16.89;81.66
82160;BME280;71734;50.876;7.372;2023-07-24T05:11:56;97976.91;;;16.99;82.35
82160;BME280;71734;50.876;7.372;2023-07-24T05:14:23;97973.38;;;16.98;81.55
82160;BME280;71734;50.876;7.372;2023-07-24T05:16:49;97973.22;;;16.89;81.39
82160;BME280;71734;50.876;7.372;2023-07-24T05:19:17;97978.81;;;16.97;81.67
82160;BME280;71734;50.876;7.372;2023-07-24T05:21:44;97975.44;;;17.06;79.64
82160;BME280;71734;50.876;7.372;2023-07-24T05:24:10;97981.38;;;17.09;80.52
82160;BME280;71734;50.876;7.372;2023-07-24T05:26:37;97972.13;;;17.13;80.93
82160;BME280;71734;50.876;7.372;2023-07-24T05:29:06;97979.31;;;17.02;81.00
82160;BME280;71734;50.876;7.372;2023-07-24T05:31:34;97982.50;;;17.07;79.37
82160;BME280;71734;50.876;7.372;2023-07-24T05:34:01;97980.41;;;17.10;80.62
82160;BME280;71734;50.876;7.372;2023-07-24T05:36:30;97988.81;;;17.17;80.87
82160;BME280;71734;50.876;7.372;2023-07-24T05:38:59;97986.59;;;17.22;80.32
82160;BME280;71734;50.876;7.372;2023-07-24T05:41:26;97994.03;;;17.30;80.42
82160;BME280;71734;50.876;7.372;2023-07-24T05:43:52;97991.47;;;17.28;81.04
82160;BME280;71734;50.876;7.372;2023-07-24T05:46:19;97998.03;;;17.35;81.23
82160;BME280;71734;50.876;7.372;2023-07-24T05:48:48;98004.94;;;17.49;81.16
82160;BME280;71734;50.876;7.372;2023-07-24T05:51:14;98003.88;;;17.51;79.17
82160;BME280;71734;50.876;7.372;2023-07-24T05:53:42;97997.13;;;17.57;81.29
82160;BME280;71734;50.876;7.372;2023-07-24T05:59:18;97996.53;;;17.76;79.12
82160;BME280;71734;50.876;7.372;2023-07-24T06:02:17;98003.69;;;17.86;77.93
82160;BME280;71734;50.876;7.372;2023-07-24T06:04:44;98001.56;;;18.01;77.90
82160;BME280;71734;50.876;7.372;2023-07-24T06:07:12;97997.25;;;18.09;77.50
82160;BME280;71734;50.876;7.372;2023-07-24T06:09:48;98011.28;;;18.13;77.12
82160;BME280;71734;50.876;7.372;2023-07-24T06:12:14;98013.22;;;18.11;73.94
82160;BME280;71734;50.876;7.372;2023-07-24T06:14:41;98015.56;;;18.04;74.46
82160;BME280;71734;50.876;7.372;2023-07-24T06:17:07;98009.19;;;18.17;76.38
82160;BME280;71734;50.876;7.372;2023-07-24T06:19:34;98013.47;;;18.08;73.60
82160;BME280;71734;50.876;7.372;2023-07-24T06:22:00;98013.31;;;18.09;74.06
82160;BME280;71734;50.876;7.372;2023-07-24T06:24:27;98024.41;;;18.16;75.43
82160;BME280;71734;50.876;7.372;2023-07-24T06:26:57;98027.59;;;18.10;74.54
82160;BME280;71734;50.876;7.372;2023-07-24T06:29:25;98026.50;;;18.13;74.97
82160;BME280;71734;50.876;7.372;2023-07-24T06:31:52;98033.91;;;18.20;75.75
82160;BME280;71734;50.876;7.372;2023-07-24T06:34:18;98035.84;;;18.18;75.26
82160;BME280;71734;50.876;7.372;2023-07-24T06:36:45;98034.50;;;18.24;74.78
82160;BME280;71734;50.876;7.372;2023-07-24T06:39:11;98027.78;;;18.29;72.63
82160;BME280;71734;50.876;7.372;2023-07-24T06:41:38;98008.41;;;18.46;72.65
82160;BME280;71734;50.876;7.372;2023-07-24T06:44:06;98004.59;;;18.60;72.19
82160;BME280;71734;50.876;7.372;2023-07-24T06:46:32;98006.28;;;18.61;73.81
82160;BME280;71734;50.876;7.372;2023-07-24T06:48:59;98006.59;;;18.68;73.17
82160;BME280;71734;50.876;7.372;2023-07-24T06:51:27;98001.50;;;18.65;73.66
82160;BME280;71734;50.876;7.372;2023-07-24T06:53:54;98003.47;;;18.63;72.06
82160;BME280;71734;50.876;7.372;2023-07-24T06:56:20;97995.34;;;18.74;73.42
82160;BME280;71734;50.876;7.372;2023-07-24T06:58:49;98007.38;;;18.79;73.59
82160;BME280;71734;50.876;7.372;2023-07-24T07:01:16;98016.28;;;18.80;73.79
82160;BME280;71734;50.876;7.372;2023-07-24T07:03:43;98018.19;;;18.68;72.83
82160;BME280;71734;50.876;7.372;2023-07-24T07:06:09;98009.63;;;18.53;71.56
82160;BME280;71734;50.876;7.372;2023-07-24T07:08:37;97995.41;;;18.63;72.03
82160;BME280;71734;50.876;7.372;2023-07-24T07:11:03;97988.59;;;18.58;71.71
82160;BME280;71734;50.876;7.372;2023-07-24T07:13:30;97992.28;;;18.58;70.62
82160;BME280;71734;50.876;7.372;2023-07-24T07:15:57;97985.47;;;18.74;72.35
82160;BME280;71734;50.876;7.372;2023-07-24T07:18:25;98000.44;;;18.77;70.03
82160;BME280;71734;50.876;7.372;2023-07-24T07:20:53;97988.97;;;18.75;70.04
82160;BME280;71734;50.876;7.372;2023-07-24T07:23:20;97993.50;;;18.95;69.58
82160;BME280;71734;50.876;7.372;2023-07-24T07:25:46;97999.06;;;19.03;70.75
82160;BME280;71734;50.876;7.372;2023-07-24T07:28:15;97987.41;;;18.93;70.34
82160;BME280;71734;50.876;7.372;2023-07-24T07:30:45;97985.63;;;19.03;69.15
82160;BME280;71734;50.876;7.372;2023-07-24T07:33:11;97983.34;;;19.08;68.79
82160;BME280;71734;50.876;7.372;2023-07-24T07:35:45;97985.63;;;19.03;69.91
82160;BME280;71734;50.876;7.372;2023-07-24T07:38:11;97988.06;;;19.16;71.08
82160;BME280;71734;50.876;7.372;2023-07-24T07:40:38;97974.66;;;19.25;70.26
82160;BME280;71734;50.876;7.372;2023-07-24T07:43:05;97990.09;;;19.33;69.88
82160;BME280;71734;50.876;7.372;2023-07-24T07:45:32;97980.66;;;19.38;68.99
82160;BME280;71734;50.876;7.372;2023-07-24T07:48:01;97973.66;;;19.17;69.08
82160;BME280;71734;50.876;7.372;2023-07-24T07:50:28;97962.25;;;19.34;70.36
82160;BME280;71734;50.876;7.372;2023-07-24T07:52:58;97968.44;;;19.15;68.17
82160;BME280;71734;50.876;7.372;2023-07-24T07:55:30;97968.69;;;19.12;68.99
82160;BME280;71734;50.876;7.372;2023-07-24T07:57:57;97957.69;;;19.15;67.65
82160;BME280;71734;50.876;7.372;2023-07-24T08:00:25;97957.19;;;19.00;68.68
82160;BME280;71734;50.876;7.372;2023-07-24T08:02:51;97954.22;;;19.03;68.78
82160;BME280;71734;50.876;7.372;2023-07-24T08:05:18;97955.81;;;19.16;70.57
82160;BME280;71734;50.876;7.372;2023-07-24T08:07:45;97953.47;;;19.22;69.66
82160;BME280;71734;50.876;7.372;2023-07-24T08:10:13;97952.38;;;19.34;71.18
82160;BME280;71734;50.876;7.372;2023-07-24T08:12:40;97949.19;;;19.50;69.50
82160;BME280;71734;50.876;7.372;2023-07-24T08:15:08;97958.41;;;19.67;69.73
82160;BME280;71734;50.876;7.372;2023-07-24T08:17:34;97957.41;;;19.77;68.51
82160;BME280;71734;50.876;7.372;2023-07-24T08:20:01;97958.84;;;19.72;68.10
82160;BME280;71734;50.876;7.372;2023-07-24T08:22:27;97953.63;;;19.80;68.03
82160;BME280;71734;50.876;7.372;2023-07-24T08:24:54;97942.31;;;19.76;67.26
82160;BME280;71734;50.876;7.372;2023-07-24T08:27:22;97952.34;;;20.03;68.40
82160;BME280;71734;50.876;7.372;2023-07-24T08:29:50;97959.28;;;20.25;66.51
82160;BME280;71734;50.876;7.372;2023-07-24T08:32:17;97968.78;;;20.38;66.57
82160;BME280;71734;50.876;7.372;2023-07-24T08:34:43;97977.44;;;20.32;65.62
82160;BME280;71734;50.876;7.372;2023-07-24T08:37:10;97960.81;;;20.18;65.96
82160;BME280;71734;50.876;7.372;2023-07-24T08:39:37;97959.88;;;20.09;65.65
82160;BME280;71734;50.876;7.372;2023-07-24T08:42:11;97949.06;;;20.19;65.30
82160;BME280;71734;50.876;7.372;2023-07-24T08:44:39;97949.09;;;20.28;64.39
82160;BME280;71734;50.876;7.372;2023-07-24T08:47:09;97934.72;;;20.66;64.26
82160;BME280;71734;50.876;7.372;2023-07-24T08:49:37;97941.03;;;20.94;63.35
82160;BME280;71734;50.876;7.372;2023-07-24T08:52:06;97922.41;;;21.01;65.40
82160;BME280;71734;50.876;7.372;2023-07-24T08:54:35;97926.50;;;21.14;63.91
82160;BME280;71734;50.876;7.372;2023-07-24T08:57:02;97926.41;;;21.33;63.33
82160;BME280;71734;50.876;7.372;2023-07-24T08:59:28;97924.41;;;21.36;61.37
82160;BME280;71734;50.876;7.372;2023-07-24T09:01:57;97921.59;;;21.55;60.46
82160;BME280;71734;50.876;7.372;2023-07-24T09:04:24;97919.91;;;21.26;59.89
82160;BME280;71734;50.876;7.372;2023-07-24T09:06:51;97922.50;;;21.18;59.96
82160;BME280;71734;50.876;7.372;2023-07-24T09:09:17;97926.19;;;21.08;60.37
82160;BME280;71734;50.876;7.372;2023-07-24T09:11:49;97936.06;;;20.90;60.43
82160;BME280;71734;50.876;7.372;2023-07-24T09:14:23;97925.75;;;20.85;61.17
82160;BME280;71734;50.876;7.372;2023-07-24T09:16:49;97928.66;;;21.38;60.60
82160;BME280;71734;50.876;7.372;2023-07-24T09:19:19;97921.00;;;21.33;60.14
82160;BME280;71734;50.876;7.372;2023-07-24T09:21:46;97930.56;;;21.46;59.96
82160;BME280;71734;50.876;7.372;2023-07-24T09:24:13;97927.78;;;21.38;60.37
82160;BME280;71734;50.876;7.372;2023-07-24T09:26:48;97929.06;;;21.06;59.62
82160;BME280;71734;50.876;7.372;2023-07-24T09:29:14;97925.75;;;20.75;59.59
82160;BME280;71734;50.876;7.372;2023-07-24T09:31:41;97912.38;;;20.47;59.94
82160;BME280;71734;50.876;7.372;2023-07-24T09:34:14;97907.31;;;20.44;60.49
82160;BME280;71734;50.876;7.372;2023-07-24T09:36:44;97913.53;;;20.34;61.10
82160;BME280;71734;50.876;7.372;2023-07-24T09:39:10;97900.44;;;20.59;61.87
82160;BME280;71734;50.876;7.372;2023-07-24T09:41:37;97891.94;;;20.63;60.52
82160;BME280;71734;50.876;7.372;2023-07-24T09:44:04;97889.34;;;20.81;59.04
82160;BME280;71734;50.876;7.372;2023-07-24T09:46:31;97878.59;;;20.71;58.87
82160;BME280;71734;50.876;7.372;2023-07-24T09:48:58;97886.41;;;21.29;56.31
82160;BME280;71734;50.876;7.372;2023-07-24T09:51:25;97874.97;;;21.45;57.31
82160;BME280;71734;50.876;7.372;2023-07-24T09:53:55;97875.84;;;21.63;58.85
82160;BME280;71734;50.876;7.372;2023-07-24T09:56:25;97874.22;;;21.70;58.43
82160;BME280;71734;50.876;7.372;2023-07-24T09:58:52;97871.66;;;21.51;57.97
82160;BME280;71734;50.876;7.372;2023-07-24T10:01:20;97864.31;;;21.25;58.68
82160;BME280;71734;50.876;7.372;2023-07-24T10:03:48;97862.69;;;21.32;58.99
82160;BME280;71734;50.876;7.372;2023-07-24T10:06:16;97866.06;;;21.17;57.50
82160;BME280;71734;50.876;7.372;2023-07-24T10:08:43;97869.72;;;21.25;58.23
82160;BME280;71734;50.876;7.372;2023-07-24T10:11:12;97865.72;;;21.02;58.72
82160;BME280;71734;50.876;7.372;2023-07-24T10:13:40;97859.19;;;20.95;59.71
82160;BME280;71734;50.876;7.372;2023-07-24T10:16:07;97861.41;;;20.82;58.27
82160;BME280;71734;50.876;7.372;2023-07-24T10:18:43;97862.63;;;20.60;58.87
82160;BME280;71734;50.876;7.372;2023-07-24T10:21:10;97873.94;;;20.64;59.41
82160;BME280;71734;50.876;7.372;2023-07-24T10:23:41;97868.09;;;20.78;60.32
82160;BME280;71734;50.876;7.372;2023-07-24T10:26:08;97861.00;;;20.77;60.30
82160;BME280;71734;50.876;7.372;2023-07-24T10:28:39;97865.66;;;20.75;59.75
82160;BME280;71734;50.876;7.372;2023-07-24T10:31:07;97870.63;;;20.79;59.54
82160;BME280;71734;50.876;7.372;2023-07-24T10:33:36;97854.22;;;21.00;58.97
82160;BME280;71734;50.876;7.372;2023-07-24T10:36:10;97850.22;;;21.14;59.33
82160;BME280;71734;50.876;7.372;2023-07-24T10:38:41;97832.16;;;21.42;58.15
82160;BME280;71734;50.876;7.372;2023-07-24T10:41:10;97838.41;;;21.95;55.83
82160;BME280;71734;50.876;7.372;2023-07-24T10:43:49;97842.81;;;22.48;54.16
82160;BME280;71734;50.876;7.372;2023-07-24T10:46:17;97844.19;;;22.78;52.84
82160;BME280;71734;50.876;7.372;2023-07-24T10:48:45;97830.09;;;22.66;54.75
82160;BME280;71734;50.876;7.372;2023-07-24T10:51:12;97832.81;;;22.66;52.17
82160;BME280;71734;50.876;7.372;2023-07-24T10:53:45;97837.88;;;22.43;54.56
82160;BME280;71734;50.876;7.372;2023-07-24T10:56:12;97830.91;;;22.92;53.79
82160;BME280;71734;50.876;7.372;2023-07-24T10:58:39;97837.56;;;22.46;53.58
82160;BME280;71734;50.876;7.372;2023-07-24T11:01:07;97833.97;;;22.38;55.93
82160;BME280;71734;50.876;7.372;2023-07-24T11:03:36;97835.56;;;22.22;54.60
82160;BME280;71734;50.876;7.372;2023-07-24T11:06:03;97832.75;;;22.06;54.88
82160;BME280;71734;50.876;7.372;2023-07-24T11:08:30;97823.38;;;21.75;56.13
82160;BME280;71734;50.876;7.372;2023-07-24T11:10:58;97825.22;;;21.57;56.58
82160;BME280;71734;50.876;7.372;2023-07-24T11:13:27;97813.28;;;21.59;56.03
82160;BME280;71734;50.876;7.372;2023-07-24T11:15:55;97807.78;;;21.69;56.83
82160;BME280;71734;50.876;7.372;2023-07-24T11:18:29;97798.31;;;21.83;56.00
82160;BME280;71734;50.876;7.372;2023-07-24T11:20:56;97784.81;;;22.00;56.25
82160;BME280;71734;50.876;7.372;2023-07-24T11:23:23;97784.41;;;22.73;55.63
82160;BME280;71734;50.876;7.372;2023-07-24T11:25:51;97782.13;;;22.60;53.76
82160;BME280;71734;50.876;7.372;2023-07-24T11:28:19;97773.25;;;22.42;53.47
82160;BME280;71734;50.876;7.372;2023-07-24T11:30:45;97771.34;;;22.34;55.12
82160;BME280;71734;50.876;7.372;2023-07-24T11:33:14;97766.75;;;22.27;53.47
82160;BME280;71734;50.876;7.372;2023-07-24T11:35:43;97753.91;;;22.20;54.02
82160;BME280;71734;50.876;7.372;2023-07-24T11:38:10;97751.22;;;21.95;53.31
82160;BME280;71734;50.876;7.372;2023-07-24T11:40:38;97744.69;;;22.31;52.80
82160;BME280;71734;50.876;7.372;2023-07-24T11:43:15;97746.66;;;22.55;51.34
82160;BME280;71734;50.876;7.372;2023-07-24T11:45:42;97733.25;;;22.79;52.17
82160;BME280;71734;50.876;7.372;2023-07-24T11:48:10;97728.47;;;22.65;51.83
82160;BME280;71734;50.876;7.372;2023-07-24T11:50:41;97727.38;;;22.50;50.76
82160;BME280;71734;50.876;7.372;2023-07-24T11:53:19;97725.19;;;22.95;50.42
82160;BME280;71734;50.876;7.372;2023-07-24T11:55:47;97723.63;;;23.43;49.06
82160;BME280;71734;50.876;7.372;2023-07-24T11:58:15;97723.94;;;23.56;48.40
82160;BME280;71734;50.876;7.372;2023-07-24T12:00:42;97721.88;;;23.42;49.58
82160;BME280;71734;50.876;7.372;2023-07-24T12:03:08;97707.66;;;23.07;49.36
82160;BME280;71734;50.876;7.372;2023-07-24T12:05:38;97699.22;;;22.94;50.23
82160;BME280;71734;50.876;7.372;2023-07-24T12:08:04;97692.00;;;22.61;51.21
82160;BME280;71734;50.876;7.372;2023-07-24T12:10:36;97717.13;;;22.53;51.61
82160;BME280;71734;50.876;7.372;2023-07-24T12:13:02;97735.88;;;22.63;52.17
82160;BME280;71734;50.876;7.372;2023-07-24T12:15:31;97737.66;;;22.46;51.49
82160;BME280;71734;50.876;7.372;2023-07-24T12:18:20;97742.94;;;22.22;50.93
82160;BME280;71734;50.876;7.372;2023-07-24T12:20:46;97743.97;;;22.21;51.18
82160;BME280;71734;50.876;7.372;2023-07-24T12:23:13;97751.47;;;22.09;52.60
82160;BME280;71734;50.876;7.372;2023-07-24T12:25:41;97770.00;;;22.04;52.93
82160;BME280;71734;50.876;7.372;2023-07-24T12:28:07;97771.28;;;21.92;54.08
82160;BME280;71734;50.876;7.372;2023-07-24T12:30:34;97766.50;;;21.68;56.16
82160;BME280;71734;50.876;7.372;2023-07-24T12:33:00;97790.53;;;21.79;56.63
82160;BME280;71734;50.876;7.372;2023-07-24T12:35:27;97813.66;;;21.64;57.98
82160;BME280;71734;50.876;7.372;2023-07-24T12:37:53;97823.63;;;21.64;59.25
82160;BME280;71734;50.876;7.372;2023-07-24T12:40:21;97830.84;;;21.46;60.51
82160;BME280;71734;50.876;7.372;2023-07-24T12:42:49;97824.97;;;21.32;61.34
82160;BME280;71734;50.876;7.372;2023-07-24T12:45:15;97815.50;;;21.28;61.14
82160;BME280;71734;50.876;7.372;2023-07-24T12:47:42;97828.69;;;21.04;64.42
82160;BME280;71734;50.876;7.372;2023-07-24T12:50:11;97817.31;;;20.83;66.87
82160;BME280;71734;50.876;7.372;2023-07-24T12:52:38;97803.66;;;20.67;66.59
82160;BME280;71734;50.876;7.372;2023-07-24T12:55:05;97813.13;;;20.34;68.68
82160;BME280;71734;50.876;7.372;2023-07-24T12:57:32;97811.44;;;20.23;70.64
82160;BME280;71734;50.876;7.372;2023-07-24T13:00:00;97819.44;;;19.96;71.24
82160;BME280;71734;50.876;7.372;2023-07-24T13:02:43;97830.22;;;19.96;72.27
82160;BME280;71734;50.876;7.372;2023-07-24T13:05:09;97823.56;;;19.90;72.59
82160;BME280;71734;50.876;7.372;2023-07-24T13:07:36;97808.16;;;19.83;71.38
82160;BME280;71734;50.876;7.372;2023-07-24T13:10:02;97811.94;;;19.90;72.71
82160;BME280;71734;50.876;7.372;2023-07-24T13:12:29;97801.28;;;20.17;71.37
82160;BME280;71734;50.876;7.372;2023-07-24T13:14:55;97806.16;;;20.78;69.39
82160;BME280;71734;50.876;7.372;2023-07-24T13:17:23;97803.94;;;21.36;68.67
82160;BME280;71734;50.876;7.372;2023-07-24T13:19:50;97814.41;;;21.57;68.18